TimeEDT,TemperatureF,Dew PointF,Humidity,Sea Level PressureIn,VisibilityMPH,Wind Direction,Wind SpeedMPH,Gust SpeedMPH,PrecipitationIn,Events,Conditions,WindDirDegrees,DateUTC
12:53 AM,55.0,46.0,72,30.14,10.0,North,5.8,-,N/A,,Overcast,350,2012-09-27 04:53:00
1:53 AM,53.1,46.0,77,30.14,10.0,North,5.8,-,N/A,,Mostly Cloudy,360,2012-09-27 05:53:00
2:53 AM,54.0,46.9,77,30.14,10.0,North,5.8,-,N/A,,Overcast,10,2012-09-27 06:53:00
3:53 AM,54.0,46.9,77,30.13,10.0,ENE,3.5,-,N/A,,Overcast,60,2012-09-27 07:53:00
4:05 AM,53.6,46.4,77,30.14,10.0,North,4.6,-,N/A,,Overcast,10,2012-09-27 08:05:00
4:53 AM,53.1,46.9,80,30.14,10.0,NNE,4.6,-,N/A,,Overcast,30,2012-09-27 08:53:00
5:14 AM,53.6,48.2,82,30.15,10.0,Calm,Calm,-,N/A,,Overcast,0,2012-09-27 09:14:00
5:53 AM,54.0,48.0,80,30.15,10.0,Calm,Calm,-,N/A,,Overcast,0,2012-09-27 09:53:00
6:18 AM,53.6,46.4,77,30.16,10.0,Calm,Calm,-,N/A,,Scattered Clouds,0,2012-09-27 10:18:00
6:53 AM,50.0,45.0,83,30.16,10.0,East,5.8,-,N/A,,Clear,90,2012-09-27 10:53:00
7:53 AM,50.0,45.0,83,30.17,10.0,North,3.5,-,N/A,,Clear,360,2012-09-27 11:53:00
8:53 AM,54.0,46.0,75,30.17,10.0,Calm,Calm,-,N/A,,Clear,0,2012-09-27 12:53:00
9:53 AM,57.0,48.0,72,30.19,10.0,East,9.2,-,N/A,,Clear,80,2012-09-27 13:53:00
10:53 AM,62.1,50.0,65,30.18,10.0,ESE,8.1,-,N/A,,Clear,110,2012-09-27 14:53:00
11:53 AM,64.0,52.0,65,30.18,10.0,ESE,5.8,-,N/A,,Overcast,110,2012-09-27 15:53:00
12:53 PM,66.9,53.1,61,30.17,10.0,ESE,9.2,-,N/A,,Mostly Cloudy,110,2012-09-27 16:53:00
1:53 PM,68.0,54.0,61,30.15,10.0,ENE,9.2,-,N/A,,Scattered Clouds,70,2012-09-27 17:53:00
2:53 PM,70.0,54.0,57,30.14,10.0,East,8.1,-,N/A,,Mostly Cloudy,100,2012-09-27 18:53:00
3:53 PM,69.1,55.0,61,30.13,10.0,East,8.1,-,N/A,,Partly Cloudy,90,2012-09-27 19:53:00
4:53 PM,69.1,54.0,58,30.12,10.0,ENE,6.9,-,N/A,,Mostly Cloudy,70,2012-09-27 20:53:00
5:53 PM,68.0,54.0,61,30.12,10.0,East,11.5,-,N/A,,Overcast,100,2012-09-27 21:53:00
6:53 PM,64.9,55.0,70,30.12,10.0,East,8.1,-,N/A,,Scattered Clouds,90,2012-09-27 22:53:00
7:53 PM,63.0,54.0,72,30.13,10.0,ENE,5.8,-,N/A,,Overcast,70,2012-09-27 23:53:00
8:53 PM,61.0,52.0,72,30.14,10.0,ESE,8.1,-,N/A,,Mostly Cloudy,110,2012-09-28 00:53:00
9:53 PM,60.1,52.0,75,30.15,10.0,East,4.6,-,N/A,,Overcast,100,2012-09-28 01:53:00
10:53 PM,55.9,51.1,84,30.15,10.0,East,3.5,-,N/A,,Mostly Cloudy,100,2012-09-28 02:53:00
11:53 PM,55.0,48.9,80,30.16,10.0,Calm,Calm,-,N/A,,Mostly Cloudy,0,2012-09-28 03:53:00